sensor_id;sensor_type;location;lat;lon;timestamp;P1;durP1;ratioP1;P2;durP2;ratioP2
36415;SDS011;22447;44.530;18.620;2022-12-11T00:02:19;16.35;;;6.40;;
36415;SDS011;22447;44.530;18.620;2022-12-11T00:04:45;18.65;;;6.28;;
36415;SDS011;22447;44.530;18.620;2022-12-11T00:07:11;19.15;;;6.85;;
36415;SDS011;22447;44.530;18.620;2022-12-11T00:09:37;13.32;;;4.53;;
36415;SDS011;22447;44.530;18.620;2022-12-11T00:12:03;28.58;;;9.57;;
36415;SDS011;22447;44.530;18.620;2022-12-11T00:14:30;20.70;;;7.30;;
36415;SDS011;22447;44.530;18.620;2022-12-11T00:16:56;23.42;;;8.70;;
36415;SDS011;22447;44.530;18.620;2022-12-11T00:19:22;21.10;;;7.50;;
36415;SDS011;22447;44.530;18.620;2022-12-11T00:21:47;36.10;;;12.25;;
36415;SDS011;22447;44.530;18.620;2022-12-11T00:24:13;16.33;;;5.90;;
36415;SDS011;22447;44.530;18.620;2022-12-11T00:26:40;15.50;;;5.03;;
36415;SDS011;22447;44.530;18.620;2022-12-11T00:29:05;12.85;;;5.60;;
36415;SDS011;22447;44.530;18.620;2022-12-11T00:31:33;10.15;;;3.70;;
36415;SDS011;22447;44.530;18.620;2022-12-11T00:33:59;12.45;;;4.75;;
36415;SDS011;22447;44.530;18.620;2022-12-11T00:36:26;13.68;;;4.90;;
36415;SDS011;22447;44.530;18.620;2022-12-11T00:38:52;12.50;;;4.88;;
36415;SDS011;22447;44.530;18.620;2022-12-11T00:41:18;5.90;;;3.22;;
36415;SDS011;22447;44.530;18.620;2022-12-11T00:43:45;9.45;;;3.72;;
36415;SDS011;22447;44.530;18.620;2022-12-11T00:46:11;11.80;;;3.95;;
36415;SDS011;22447;44.530;18.620;2022-12-11T00:48:37;4.90;;;2.78;;
36415;SDS011;22447;44.530;18.620;2022-12-11T00:51:04;6.22;;;2.92;;
36415;SDS011;22447;44.530;18.620;2022-12-11T00:53:30;6.72;;;3.10;;
36415;SDS011;22447;44.530;18.620;2022-12-11T00:55:56;8.93;;;3.00;;
36415;SDS011;22447;44.530;18.620;2022-12-11T00:58:22;6.45;;;3.15;;
36415;SDS011;22447;44.530;18.620;2022-12-11T01:00:50;6.18;;;2.70;;
36415;SDS011;22447;44.530;18.620;2022-12-11T01:03:16;6.10;;;2.85;;
36415;SDS011;22447;44.530;18.620;2022-12-11T01:05:50;2.85;;;1.50;;
36415;SDS011;22447;44.530;18.620;2022-12-11T01:08:17;8.13;;;4.03;;
36415;SDS011;22447;44.530;18.620;2022-12-11T01:10:43;4.43;;;2.05;;
36415;SDS011;22447;44.530;18.620;2022-12-11T01:13:08;6.97;;;2.60;;
36415;SDS011;22447;44.530;18.620;2022-12-11T01:15:40;7.15;;;3.38;;
36415;SDS011;22447;44.530;18.620;2022-12-11T01:18:09;11.02;;;4.35;;
36415;SDS011;22447;44.530;18.620;2022-12-11T01:20:36;10.88;;;4.78;;
36415;SDS011;22447;44.530;18.620;2022-12-11T01:23:04;6.85;;;3.50;;
36415;SDS011;22447;44.530;18.620;2022-12-11T01:25:30;6.50;;;2.58;;
36415;SDS011;22447;44.530;18.620;2022-12-11T01:27:57;10.43;;;4.20;;
36415;SDS011;22447;44.530;18.620;2022-12-11T01:30:24;3.78;;;2.47;;
36415;SDS011;22447;44.530;18.620;2022-12-11T01:32:50;5.78;;;2.45;;
36415;SDS011;22447;44.530;18.620;2022-12-11T01:35:17;6.30;;;2.83;;
36415;SDS011;22447;44.530;18.620;2022-12-11T01:37:44;8.77;;;3.25;;
36415;SDS011;22447;44.530;18.620;2022-12-11T01:40:14;4.53;;;2.20;;
36415;SDS011;22447;44.530;18.620;2022-12-11T01:42:41;9.45;;;2.88;;
36415;SDS011;22447;44.530;18.620;2022-12-11T01:47:49;6.65;;;2.58;;
36415;SDS011;22447;44.530;18.620;2022-12-11T01:50:37;6.28;;;1.85;;
36415;SDS011;22447;44.530;18.620;2022-12-11T01:53:07;3.45;;;1.38;;
36415;SDS011;22447;44.530;18.620;2022-12-11T01:55:36;4.22;;;1.60;;
36415;SDS011;22447;44.530;18.620;2022-12-11T01:58:04;5.05;;;1.33;;
36415;SDS011;22447;44.530;18.620;2022-12-11T02:00:31;3.22;;;1.38;;
36415;SDS011;22447;44.530;18.620;2022-12-11T02:02:57;3.20;;;1.48;;
36415;SDS011;22447;44.530;18.620;2022-12-11T02:05:22;6.97;;;1.77;;
36415;SDS011;22447;44.530;18.620;2022-12-11T02:07:50;4.45;;;1.83;;
36415;SDS011;22447;44.530;18.620;2022-12-11T02:15:32;4.65;;;2.13;;
36415;SDS011;22447;44.530;18.620;2022-12-11T02:28:54;4.95;;;1.65;;
36415;SDS011;22447;44.530;18.620;2022-12-11T02:31:36;14.98;;;5.13;;
36415;SDS011;22447;44.530;18.620;2022-12-11T02:36:55;11.23;;;2.40;;
36415;SDS011;22447;44.530;18.620;2022-12-11T02:39:25;8.70;;;1.73;;
36415;SDS011;22447;44.530;18.620;2022-12-11T02:41:52;7.70;;;2.63;;
36415;SDS011;22447;44.530;18.620;2022-12-11T02:44:24;22.35;;;3.70;;
36415;SDS011;22447;44.530;18.620;2022-12-11T02:46:53;15.90;;;3.72;;
36415;SDS011;22447;44.530;18.620;2022-12-11T02:49:20;21.15;;;3.55;;
36415;SDS011;22447;44.530;18.620;2022-12-11T02:51:48;25.27;;;3.92;;
36415;SDS011;22447;44.530;18.620;2022-12-11T02:54:18;18.88;;;3.83;;
36415;SDS011;22447;44.530;18.620;2022-12-11T02:57:29;28.92;;;3.92;;
36415;SDS011;22447;44.530;18.620;2022-12-11T03:00:08;16.73;;;3.95;;
36415;SDS011;22447;44.530;18.620;2022-12-11T03:02:36;18.52;;;3.17;;
36415;SDS011;22447;44.530;18.620;2022-12-11T03:05:03;12.98;;;3.25;;
36415;SDS011;22447;44.530;18.620;2022-12-11T03:07:32;14.15;;;3.55;;
36415;SDS011;22447;44.530;18.620;2022-12-11T03:10:00;14.63;;;4.88;;
36415;SDS011;22447;44.530;18.620;2022-12-11T03:12:27;13.38;;;3.83;;
36415;SDS011;22447;44.530;18.620;2022-12-11T03:14:56;18.85;;;3.78;;
36415;SDS011;22447;44.530;18.620;2022-12-11T03:17:33;20.45;;;4.32;;
36415;SDS011;22447;44.530;18.620;2022-12-11T03:22:53;16.35;;;4.13;;
36415;SDS011;22447;44.530;18.620;2022-12-11T03:26:12;19.15;;;3.58;;
36415;SDS011;22447;44.530;18.620;2022-12-11T03:28:20;12.95;;;3.05;;
36415;SDS011;22447;44.530;18.620;2022-12-11T03:31:09;6.32;;;2.72;;
36415;SDS011;22447;44.530;18.620;2022-12-11T03:33:39;7.15;;;2.28;;
36415;SDS011;22447;44.530;18.620;2022-12-11T03:36:19;6.78;;;2.40;;
36415;SDS011;22447;44.530;18.620;2022-12-11T03:38:53;7.65;;;2.40;;
36415;SDS011;22447;44.530;18.620;2022-12-11T03:41:23;11.85;;;3.22;;
36415;SDS011;22447;44.530;18.620;2022-12-11T03:43:52;9.02;;;3.92;;
36415;SDS011;22447;44.530;18.620;2022-12-11T03:46:21;11.65;;;5.18;;
36415;SDS011;22447;44.530;18.620;2022-12-11T03:48:51;9.30;;;3.47;;
36415;SDS011;22447;44.530;18.620;2022-12-11T03:51:20;11.68;;;3.83;;
36415;SDS011;22447;44.530;18.620;2022-12-11T03:53:48;9.93;;;3.13;;
36415;SDS011;22447;44.530;18.620;2022-12-11T03:56:15;9.40;;;2.40;;
36415;SDS011;22447;44.530;18.620;2022-12-11T03:58:42;9.30;;;2.00;;
36415;SDS011;22447;44.530;18.620;2022-12-11T04:01:09;17.58;;;2.88;;
36415;SDS011;22447;44.530;18.620;2022-12-11T04:03:36;22.10;;;4.38;;
36415;SDS011;22447;44.530;18.620;2022-12-11T04:06:02;14.48;;;3.40;;
36415;SDS011;22447;44.530;18.620;2022-12-11T04:08:29;18.75;;;3.38;;
36415;SDS011;22447;44.530;18.620;2022-12-11T04:10:54;20.02;;;4.00;;
36415;SDS011;22447;44.530;18.620;2022-12-11T04:13:46;8.15;;;3.25;;
36415;SDS011;22447;44.530;18.620;2022-12-11T04:16:32;11.30;;;2.65;;
36415;SDS011;22447;44.530;18.620;2022-12-11T04:18:58;10.27;;;3.00;;
36415;SDS011;22447;44.530;18.620;2022-12-11T04:21:43;5.82;;;2.38;;
36415;SDS011;22447;44.530;18.620;2022-12-11T04:24:27;10.30;;;3.40;;
36415;SDS011;22447;44.530;18.620;2022-12-11T04:26:53;10.32;;;3.67;;
36415;SDS011;22447;44.530;18.620;2022-12-11T04:29:19;10.45;;;4.50;;
36415;SDS011;22447;44.530;18.620;2022-12-11T04:31:45;9.63;;;4.45;;
36415;SDS011;22447;44.530;18.620;2022-12-11T04:34:11;13.07;;;4.78;;
36415;SDS011;22447;44.530;18.620;2022-12-11T04:36:37;13.85;;;4.53;;
36415;SDS011;22447;44.530;18.620;2022-12-11T04:39:04;15.82;;;6.25;;
36415;SDS011;22447;44.530;18.620;2022-12-11T04:41:30;15.25;;;7.10;;
36415;SDS011;22447;44.530;18.620;2022-12-11T04:43:56;34.92;;;11.63;;
36415;SDS011;22447;44.530;18.620;2022-12-11T04:46:22;79.95;;;17.10;;
36415;SDS011;22447;44.530;18.620;2022-12-11T04:48:49;53.90;;;17.20;;
36415;SDS011;22447;44.530;18.620;2022-12-11T04:51:15;56.67;;;16.65;;
36415;SDS011;22447;44.530;18.620;2022-12-11T04:53:43;60.03;;;17.30;;
36415;SDS011;22447;44.530;18.620;2022-12-11T04:56:10;64.53;;;18.15;;
36415;SDS011;22447;44.530;18.620;2022-12-11T04:58:38;68.72;;;17.73;;
36415;SDS011;22447;44.530;18.620;2022-12-11T05:01:08;74.65;;;18.73;;
36415;SDS011;22447;44.530;18.620;2022-12-11T05:03:38;51.63;;;13.63;;
36415;SDS011;22447;44.530;18.620;2022-12-11T05:06:05;81.60;;;16.55;;
36415;SDS011;22447;44.530;18.620;2022-12-11T05:08:33;77.53;;;17.08;;
36415;SDS011;22447;44.530;18.620;2022-12-11T05:11:01;84.45;;;19.05;;
36415;SDS011;22447;44.530;18.620;2022-12-11T05:13:29;72.13;;;18.02;;
36415;SDS011;22447;44.530;18.620;2022-12-11T05:15:56;48.00;;;15.30;;
36415;SDS011;22447;44.530;18.620;2022-12-11T05:18:22;53.55;;;16.13;;
36415;SDS011;22447;44.530;18.620;2022-12-11T05:20:55;43.10;;;14.43;;
36415;SDS011;22447;44.530;18.620;2022-12-11T05:23:22;40.10;;;13.05;;
36415;SDS011;22447;44.530;18.620;2022-12-11T05:25:55;36.40;;;12.57;;
36415;SDS011;22447;44.530;18.620;2022-12-11T05:28:27;32.30;;;11.88;;
36415;SDS011;22447;44.530;18.620;2022-12-11T05:30:55;29.88;;;10.32;;
36415;SDS011;22447;44.530;18.620;2022-12-11T05:33:22;26.95;;;10.60;;
36415;SDS011;22447;44.530;18.620;2022-12-11T05:35:48;23.65;;;8.93;;
36415;SDS011;22447;44.530;18.620;2022-12-11T05:38:14;18.88;;;7.07;;
36415;SDS011;22447;44.530;18.620;2022-12-11T05:40:40;28.88;;;8.88;;
36415;SDS011;22447;44.530;18.620;2022-12-11T05:43:06;25.67;;;9.27;;
36415;SDS011;22447;44.530;18.620;2022-12-11T05:45:32;20.60;;;8.15;;
36415;SDS011;22447;44.530;18.620;2022-12-11T05:47:59;24.45;;;11.32;;
36415;SDS011;22447;44.530;18.620;2022-12-11T05:50:25;16.70;;;6.80;;
36415;SDS011;22447;44.530;18.620;2022-12-11T05:52:51;18.30;;;8.20;;
36415;SDS011;22447;44.530;18.620;2022-12-11T05:55:17;20.02;;;7.43;;
36415;SDS011;22447;44.530;18.620;2022-12-11T05:57:42;18.85;;;7.28;;
36415;SDS011;22447;44.530;18.620;2022-12-11T06:00:10;19.67;;;6.93;;
36415;SDS011;22447;44.530;18.620;2022-12-11T06:02:37;20.88;;;7.22;;
36415;SDS011;22447;44.530;18.620;2022-12-11T06:05:03;15.88;;;5.85;;
36415;SDS011;22447;44.530;18.620;2022-12-11T06:07:29;16.60;;;6.22;;
36415;SDS011;22447;44.530;18.620;2022-12-11T06:09:55;23.17;;;8.73;;
36415;SDS011;22447;44.530;18.620;2022-12-11T06:12:21;15.98;;;6.68;;
36415;SDS011;22447;44.530;18.620;2022-12-11T06:14:46;16.90;;;7.00;;
36415;SDS011;22447;44.530;18.620;2022-12-11T06:17:12;13.90;;;6.70;;
36415;SDS011;22447;44.530;18.620;2022-12-11T06:19:38;15.55;;;6.05;;
36415;SDS011;22447;44.530;18.620;2022-12-11T06:22:04;11.20;;;4.45;;
36415;SDS011;22447;44.530;18.620;2022-12-11T06:24:30;11.18;;;4.82;;
36415;SDS011;22447;44.530;18.620;2022-12-11T06:26:56;18.67;;;5.35;;
36415;SDS011;22447;44.530;18.620;2022-12-11T06:29:22;11.43;;;5.30;;
36415;SDS011;22447;44.530;18.620;2022-12-11T06:31:48;12.65;;;5.30;;
36415;SDS011;22447;44.530;18.620;2022-12-11T06:34:14;22.00;;;6.50;;
36415;SDS011;22447;44.530;18.620;2022-12-11T06:36:40;18.65;;;7.75;;
36415;SDS011;22447;44.530;18.620;2022-12-11T06:39:06;32.28;;;11.95;;
36415;SDS011;22447;44.530;18.620;2022-12-11T06:41:32;26.60;;;12.55;;
36415;SDS011;22447;44.530;18.620;2022-12-11T06:43:58;40.08;;;17.45;;
36415;SDS011;22447;44.530;18.620;2022-12-11T06:46:24;39.45;;;18.13;;
36415;SDS011;22447;44.530;18.620;2022-12-11T06:48:50;30.42;;;11.40;;
36415;SDS011;22447;44.530;18.620;2022-12-11T06:51:17;33.15;;;14.63;;
36415;SDS011;22447;44.530;18.620;2022-12-11T06:53:44;21.42;;;10.98;;
36415;SDS011;22447;44.530;18.620;2022-12-11T06:56:16;20.23;;;11.63;;
36415;SDS011;22447;44.530;18.620;2022-12-11T06:58:42;26.70;;;14.70;;
36415;SDS011;22447;44.530;18.620;2022-12-11T07:01:15;25.30;;;14.05;;
36415;SDS011;22447;44.530;18.620;2022-12-11T07:03:46;24.92;;;15.27;;
36415;SDS011;22447;44.530;18.620;2022-12-11T07:06:12;34.97;;;16.35;;
36415;SDS011;22447;44.530;18.620;2022-12-11T07:08:39;25.60;;;12.98;;
36415;SDS011;22447;44.530;18.620;2022-12-11T07:11:08;35.42;;;17.30;;
36415;SDS011;22447;44.530;18.620;2022-12-11T07:13:36;37.65;;;20.80;;
36415;SDS011;22447;44.530;18.620;2022-12-11T07:16:02;54.30;;;22.92;;
36415;SDS011;22447;44.530;18.620;2022-12-11T07:18:34;46.20;;;21.10;;
36415;SDS011;22447;44.530;18.620;2022-12-11T07:21:02;45.78;;;21.58;;
36415;SDS011;22447;44.530;18.620;2022-12-11T07:23:29;50.45;;;22.60;;
36415;SDS011;22447;44.530;18.620;2022-12-11T07:25:55;42.63;;;19.88;;
36415;SDS011;22447;44.530;18.620;2022-12-11T07:28:21;46.25;;;19.00;;
36415;SDS011;22447;44.530;18.620;2022-12-11T07:30:47;50.22;;;18.98;;
36415;SDS011;22447;44.530;18.620;2022-12-11T07:33:13;49.40;;;18.40;;
36415;SDS011;22447;44.530;18.620;2022-12-11T07:35:40;52.97;;;20.67;;
36415;SDS011;22447;44.530;18.620;2022-12-11T07:38:05;75.18;;;24.23;;
36415;SDS011;22447;44.530;18.620;2022-12-11T07:40:32;78.32;;;26.65;;
36415;SDS011;22447;44.530;18.620;2022-12-11T07:42:58;70.05;;;24.25;;
36415;SDS011;22447;44.530;18.620;2022-12-11T07:45:24;74.15;;;24.67;;
36415;SDS011;22447;44.530;18.620;2022-12-11T07:47:51;75.82;;;26.75;;
36415;SDS011;22447;44.530;18.620;2022-12-11T07:50:17;92.55;;;29.23;;
36415;SDS011;22447;44.530;18.620;2022-12-11T07:52:43;103.85;;;32.97;;
36415;SDS011;22447;44.530;18.620;2022-12-11T07:55:09;104.20;;;31.67;;
36415;SDS011;22447;44.530;18.620;2022-12-11T07:57:35;97.53;;;33.88;;
36415;SDS011;22447;44.530;18.620;2022-12-11T08:00:02;116.22;;;37.03;;
36415;SDS011;22447;44.530;18.620;2022-12-11T08:02:37;116.00;;;38.60;;
36415;SDS011;22447;44.530;18.620;2022-12-11T08:05:03;118.32;;;37.33;;
36415;SDS011;22447;44.530;18.620;2022-12-11T08:07:30;140.63;;;49.92;;
36415;SDS011;22447;44.530;18.620;2022-12-11T08:09:59;88.57;;;30.90;;
36415;SDS011;22447;44.530;18.620;2022-12-11T08:12:25;91.43;;;32.05;;
36415;SDS011;22447;44.530;18.620;2022-12-11T08:14:51;80.88;;;27.77;;
36415;SDS011;22447;44.530;18.620;2022-12-11T08:17:16;90.53;;;31.80;;
36415;SDS011;22447;44.530;18.620;2022-12-11T08:19:42;85.88;;;28.00;;
36415;SDS011;22447;44.530;18.620;2022-12-11T08:22:08;80.15;;;27.98;;
36415;SDS011;22447;44.530;18.620;2022-12-11T08:24:36;72.80;;;26.13;;
36415;SDS011;22447;44.530;18.620;2022-12-11T08:27:02;66.32;;;24.70;;
36415;SDS011;22447;44.530;18.620;2022-12-11T08:29:28;58.97;;;22.17;;
36415;SDS011;22447;44.530;18.620;2022-12-11T08:31:54;60.50;;;23.70;;
36415;SDS011;22447;44.530;18.620;2022-12-11T08:34:19;58.78;;;22.85;;
36415;SDS011;22447;44.530;18.620;2022-12-11T08:36:45;59.97;;;24.75;;
36415;SDS011;22447;44.530;18.620;2022-12-11T08:39:11;62.13;;;24.83;;
36415;SDS011;22447;44.530;18.620;2022-12-11T08:41:37;89.55;;;40.85;;
36415;SDS011;22447;44.530;18.620;2022-12-11T08:44:03;87.97;;;39.17;;
36415;SDS011;22447;44.530;18.620;2022-12-11T08:46:30;75.43;;;34.08;;
36415;SDS011;22447;44.530;18.620;2022-12-11T08:48:56;56.85;;;26.95;;
36415;SDS011;22447;44.530;18.620;2022-12-11T08:51:24;43.67;;;20.15;;
36415;SDS011;22447;44.530;18.620;2022-12-11T08:53:56;49.30;;;22.67;;
36415;SDS011;22447;44.530;18.620;2022-12-11T08:56:23;45.00;;;21.58;;
36415;SDS011;22447;44.530;18.620;2022-12-11T08:58:50;57.58;;;29.20;;
36415;SDS011;22447;44.530;18.620;2022-12-11T09:01:18;82.80;;;37.92;;
36415;SDS011;22447;44.530;18.620;2022-12-11T09:03:50;77.80;;;36.13;;
36415;SDS011;22447;44.530;18.620;2022-12-11T09:06:18;68.93;;;32.15;;
36415;SDS011;22447;44.530;18.620;2022-12-11T09:08:48;66.15;;;30.63;;
36415;SDS011;22447;44.530;18.620;2022-12-11T09:11:16;69.20;;;33.42;;
36415;SDS011;22447;44.530;18.620;2022-12-11T09:13:44;67.90;;;32.85;;
36415;SDS011;22447;44.530;18.620;2022-12-11T09:16:12;52.03;;;27.65;;
36415;SDS011;22447;44.530;18.620;2022-12-11T09:18:39;53.63;;;25.55;;
36415;SDS011;22447;44.530;18.620;2022-12-11T09:21:09;46.38;;;23.77;;
36415;SDS011;22447;44.530;18.620;2022-12-11T09:23:37;51.00;;;23.40;;
36415;SDS011;22447;44.530;18.620;2022-12-11T09:26:05;52.80;;;25.70;;
36415;SDS011;22447;44.530;18.620;2022-12-11T09:28:32;53.35;;;25.85;;
36415;SDS011;22447;44.530;18.620;2022-12-11T09:30:58;57.75;;;26.42;;
36415;SDS011;22447;44.530;18.620;2022-12-11T09:33:24;64.18;;;26.38;;
36415;SDS011;22447;44.530;18.620;2022-12-11T09:35:57;54.50;;;24.60;;
36415;SDS011;22447;44.530;18.620;2022-12-11T09:38:23;57.70;;;24.25;;
36415;SDS011;22447;44.530;18.620;2022-12-11T09:40:50;58.35;;;25.58;;
36415;SDS011;22447;44.530;18.620;2022-12-11T09:46:04;100.03;;;41.30;;
36415;SDS011;22447;44.530;18.620;2022-12-11T09:48:35;101.30;;;36.90;;
36415;SDS011;22447;44.530;18.620;2022-12-11T09:53:43;95.00;;;34.17;;
36415;SDS011;22447;44.530;18.620;2022-12-11T10:01:30;104.15;;;40.85;;
36415;SDS011;22447;44.530;18.620;2022-12-11T10:06:29;83.88;;;36.97;;
36415;SDS011;22447;44.530;18.620;2022-12-11T10:09:18;80.22;;;30.48;;
36415;SDS011;22447;44.530;18.620;2022-12-11T10:19:41;83.53;;;32.22;;
36415;SDS011;22447;44.530;18.620;2022-12-11T10:22:13;92.07;;;36.35;;
36415;SDS011;22447;44.530;18.620;2022-12-11T10:24:49;100.05;;;36.97;;
36415;SDS011;22447;44.530;18.620;2022-12-11T10:27:21;129.90;;;52.58;;
36415;SDS011;22447;44.530;18.620;2022-12-11T10:30:24;102.63;;;40.40;;
36415;SDS011;22447;44.530;18.620;2022-12-11T10:32:50;94.68;;;36.50;;
36415;SDS011;22447;44.530;18.620;2022-12-11T10:35:38;71.07;;;24.45;;
36415;SDS011;22447;44.530;18.620;2022-12-11T10:38:15;51.25;;;23.42;;
36415;SDS011;22447;44.530;18.620;2022-12-11T10:41:18;53.17;;;22.88;;
36415;SDS011;22447;44.530;18.620;2022-12-11T10:43:49;52.42;;;22.63;;
36415;SDS011;22447;44.530;18.620;2022-12-11T10:48:47;49.75;;;23.52;;
36415;SDS011;22447;44.530;18.620;2022-12-11T10:51:18;46.72;;;22.52;;
36415;SDS011;22447;44.530;18.620;2022-12-11T10:53:52;49.75;;;23.02;;
36415;SDS011;22447;44.530;18.620;2022-12-11T10:56:26;48.38;;;23.23;;
36415;SDS011;22447;44.530;18.620;2022-12-11T10:58:54;45.40;;;23.27;;
36415;SDS011;22447;44.530;18.620;2022-12-11T11:01:22;45.08;;;21.50;;
36415;SDS011;22447;44.530;18.620;2022-12-11T11:03:52;40.03;;;20.77;;
36415;SDS011;22447;44.530;18.620;2022-12-11T11:06:19;41.35;;;23.00;;
36415;SDS011;22447;44.530;18.620;2022-12-11T11:08:47;41.45;;;20.90;;
36415;SDS011;22447;44.530;18.620;2022-12-11T11:14:03;41.78;;;21.75;;
36415;SDS011;22447;44.530;18.620;2022-12-11T11:16:34;55.27;;;27.30;;
36415;SDS011;22447;44.530;18.620;2022-12-11T11:21:29;63.78;;;30.63;;
36415;SDS011;22447;44.530;18.620;2022-12-11T11:23:56;71.03;;;33.05;;
36415;SDS011;22447;44.530;18.620;2022-12-11T11:26:22;68.25;;;32.95;;
36415;SDS011;22447;44.530;18.620;2022-12-11T11:28:52;62.03;;;28.85;;
36415;SDS011;22447;44.530;18.620;2022-12-11T11:31:29;63.08;;;29.08;;
36415;SDS011;22447;44.530;18.620;2022-12-11T11:33:58;55.83;;;25.45;;
36415;SDS011;22447;44.530;18.620;2022-12-11T11:36:31;66.32;;;29.38;;
36415;SDS011;22447;44.530;18.620;2022-12-11T11:39:02;65.95;;;30.60;;
36415;SDS011;22447;44.530;18.620;2022-12-11T11:41:51;49.67;;;23.73;;
36415;SDS011;22447;44.530;18.620;2022-12-11T11:44:36;50.35;;;23.85;;
36415;SDS011;22447;44.530;18.620;2022-12-11T11:47:26;41.22;;;22.15;;
36415;SDS011;22447;44.530;18.620;2022-12-11T11:52:45;44.03;;;21.92;;
36415;SDS011;22447;44.530;18.620;2022-12-11T11:55:17;43.05;;;21.00;;
36415;SDS011;22447;44.530;18.620;2022-12-11T12:00:59;31.77;;;17.25;;
36415;SDS011;22447;44.530;18.620;2022-12-11T12:03:25;40.25;;;20.73;;
36415;SDS011;22447;44.530;18.620;2022-12-11T12:21:45;31.20;;;17.80;;
36415;SDS011;22447;44.530;18.620;2022-12-11T12:24:37;39.15;;;21.10;;
36415;SDS011;22447;44.530;18.620;2022-12-11T12:30:05;29.48;;;17.38;;
36415;SDS011;22447;44.530;18.620;2022-12-11T12:35:40;29.45;;;17.50;;
36415;SDS011;22447;44.530;18.620;2022-12-11T12:52:15;27.67;;;16.13;;
36415;SDS011;22447;44.530;18.620;2022-12-11T12:54:49;33.13;;;17.73;;
36415;SDS011;22447;44.530;18.620;2022-12-11T12:57:59;39.90;;;20.47;;
36415;SDS011;22447;44.530;18.620;2022-12-11T13:00:30;27.42;;;15.45;;
36415;SDS011;22447;44.530;18.620;2022-12-11T13:03:20;27.27;;;15.45;;
36415;SDS011;22447;44.530;18.620;2022-12-11T13:11:29;30.07;;;15.80;;
36415;SDS011;22447;44.530;18.620;2022-12-11T13:14:03;30.00;;;17.00;;
36415;SDS011;22447;44.530;18.620;2022-12-11T13:16:39;21.70;;;12.75;;
36415;SDS011;22447;44.530;18.620;2022-12-11T13:24:28;31.85;;;15.05;;
36415;SDS011;22447;44.530;18.620;2022-12-11T13:27:06;26.75;;;14.40;;
36415;SDS011;22447;44.530;18.620;2022-12-11T13:29:35;25.33;;;13.85;;
36415;SDS011;22447;44.530;18.620;2022-12-11T13:34:32;21.17;;;11.93;;
36415;SDS011;22447;44.530;18.620;2022-12-11T13:37:02;26.30;;;13.63;;
36415;SDS011;22447;44.530;18.620;2022-12-11T13:39:30;19.50;;;12.10;;
36415;SDS011;22447;44.530;18.620;2022-12-11T13:42:06;23.30;;;12.87;;
36415;SDS011;22447;44.530;18.620;2022-12-11T13:44:45;28.30;;;14.73;;
36415;SDS011;22447;44.530;18.620;2022-12-11T13:47:14;36.95;;;18.52;;
36415;SDS011;22447;44.530;18.620;2022-12-11T13:49:43;42.75;;;22.70;;
36415;SDS011;22447;44.530;18.620;2022-12-11T13:52:16;25.45;;;14.30;;
36415;SDS011;22447;44.530;18.620;2022-12-11T13:54:53;19.58;;;11.55;;
36415;SDS011;22447;44.530;18.620;2022-12-11T13:57:26;26.55;;;14.63;;
36415;SDS011;22447;44.530;18.620;2022-12-11T13:59:56;22.88;;;12.80;;
36415;SDS011;22447;44.530;18.620;2022-12-11T14:02:33;26.25;;;14.30;;
36415;SDS011;22447;44.530;18.620;2022-12-11T14:05:07;23.70;;;13.18;;
36415;SDS011;22447;44.530;18.620;2022-12-11T14:07:35;20.05;;;11.98;;
36415;SDS011;22447;44.530;18.620;2022-12-11T14:10:13;26.58;;;13.88;;
36415;SDS011;22447;44.530;18.620;2022-12-11T14:12:47;29.65;;;14.23;;
36415;SDS011;22447;44.530;18.620;2022-12-11T14:15:30;30.83;;;14.25;;
36415;SDS011;22447;44.530;18.620;2022-12-11T14:17:57;32.45;;;14.27;;
36415;SDS011;22447;44.530;18.620;2022-12-11T14:20:26;28.52;;;13.95;;
36415;SDS011;22447;44.530;18.620;2022-12-11T14:23:04;28.73;;;16.38;;
36415;SDS011;22447;44.530;18.620;2022-12-11T14:26:03;35.47;;;15.55;;
36415;SDS011;22447;44.530;18.620;2022-12-11T14:28:41;30.20;;;15.65;;
36415;SDS011;22447;44.530;18.620;2022-12-11T14:31:07;30.50;;;18.77;;
36415;SDS011;22447;44.530;18.620;2022-12-11T14:33:39;25.57;;;15.03;;
36415;SDS011;22447;44.530;18.620;2022-12-11T14:36:08;25.52;;;14.18;;
36415;SDS011;22447;44.530;18.620;2022-12-11T14:38:36;22.70;;;12.35;;
36415;SDS011;22447;44.530;18.620;2022-12-11T14:41:10;19.38;;;12.23;;
36415;SDS011;22447;44.530;18.620;2022-12-11T14:43:42;18.85;;;11.77;;
36415;SDS011;22447;44.530;18.620;2022-12-11T14:46:16;19.25;;;11.82;;
36415;SDS011;22447;44.530;18.620;2022-12-11T14:48:54;25.58;;;12.15;;
36415;SDS011;22447;44.530;18.620;2022-12-11T14:51:24;26.58;;;14.10;;
36415;SDS011;22447;44.530;18.620;2022-12-11T14:53:53;29.88;;;15.73;;
36415;SDS011;22447;44.530;18.620;2022-12-11T14:56:20;41.58;;;21.13;;
36415;SDS011;22447;44.530;18.620;2022-12-11T14:58:57;50.42;;;29.40;;
36415;SDS011;22447;44.530;18.620;2022-12-11T15:04:01;44.97;;;25.52;;
36415;SDS011;22447;44.530;18.620;2022-12-11T15:06:28;45.80;;;26.15;;
36415;SDS011;22447;44.530;18.620;2022-12-11T15:09:09;37.90;;;20.13;;
36415;SDS011;22447;44.530;18.620;2022-12-11T15:11:54;26.65;;;14.70;;
36415;SDS011;22447;44.530;18.620;2022-12-11T15:14:22;25.00;;;13.73;;
36415;SDS011;22447;44.530;18.620;2022-12-11T15:16:49;23.58;;;13.77;;
36415;SDS011;22447;44.530;18.620;2022-12-11T15:19:20;20.95;;;12.75;;
36415;SDS011;22447;44.530;18.620;2022-12-11T15:22:00;32.67;;;18.65;;
36415;SDS011;22447;44.530;18.620;2022-12-11T15:26:59;21.63;;;12.90;;
36415;SDS011;22447;44.530;18.620;2022-12-11T15:29:33;22.08;;;12.82;;
36415;SDS011;22447;44.530;18.620;2022-12-11T15:37:21;22.20;;;12.05;;
36415;SDS011;22447;44.530;18.620;2022-12-11T15:39:51;21.02;;;12.43;;
36415;SDS011;22447;44.530;18.620;2022-12-11T15:42:51;26.80;;;13.95;;
36415;SDS011;22447;44.530;18.620;2022-12-11T15:45:14;25.52;;;13.05;;
36415;SDS011;22447;44.530;18.620;2022-12-11T15:47:52;26.98;;;14.32;;
36415;SDS011;22447;44.530;18.620;2022-12-11T15:50:20;28.88;;;14.82;;
36415;SDS011;22447;44.530;18.620;2022-12-11T15:52:47;25.67;;;14.98;;
36415;SDS011;22447;44.530;18.620;2022-12-11T15:55:15;39.08;;;21.63;;
36415;SDS011;22447;44.530;18.620;2022-12-11T15:57:42;39.10;;;23.75;;
36415;SDS011;22447;44.530;18.620;2022-12-11T16:00:15;61.87;;;30.60;;
36415;SDS011;22447;44.530;18.620;2022-12-11T16:02:43;43.53;;;25.02;;
36415;SDS011;22447;44.530;18.620;2022-12-11T16:05:09;28.00;;;17.70;;
36415;SDS011;22447;44.530;18.620;2022-12-11T16:07:35;25.25;;;15.70;;
36415;SDS011;22447;44.530;18.620;2022-12-11T16:10:01;31.63;;;16.55;;
36415;SDS011;22447;44.530;18.620;2022-12-11T16:12:27;50.45;;;27.08;;
36415;SDS011;22447;44.530;18.620;2022-12-11T16:14:53;28.17;;;15.90;;
36415;SDS011;22447;44.530;18.620;2022-12-11T16:17:18;33.55;;;17.00;;
36415;SDS011;22447;44.530;18.620;2022-12-11T16:19:44;29.58;;;17.35;;
36415;SDS011;22447;44.530;18.620;2022-12-11T16:22:11;30.75;;;17.00;;
36415;SDS011;22447;44.530;18.620;2022-12-11T16:24:37;36.55;;;19.50;;
36415;SDS011;22447;44.530;18.620;2022-12-11T16:27:04;42.38;;;22.80;;
36415;SDS011;22447;44.530;18.620;2022-12-11T16:29:36;50.17;;;28.40;;